Time;durP1;ratioP1;P1;durP2;ratioP2;P2;SDS_P1;SDS_P2;PMS_P1;PMS_P2;Temp;Humidity;BMP_temperature;BMP_pressure;BME280_temperature;BME280_humidity;BME280_pressure;Samples;Min_cycle;Max_cycle;Signal;HPM_P1;HPM_P2
2021/03/18 00:02:04;;;;;;;8.05;3.35;;;1.10;89.20;;;;;;5024586;28;20109;-54
2021/03/18 00:04:31;;;;;;;10.15;3.30;;;1.10;89.50;;;;;;5023227;28;20045;-52
2021/03/18 00:06:57;;;;;;;14.05;4.07;;;1.10;89.50;;;;;;5020847;28;20050;-53
2021/03/18 00:09:23;;;;;;;11.95;3.80;;;1.10;89.30;;;;;;5022859;28;20038;-51
2021/03/18 00:11:51;;;;;;;10.80;4.05;;;1.10;89.40;;;;;;5020292;28;20502;-54
2021/03/18 00:14:24;;;;;;;12.77;3.85;;;1.10;89.70;;;;;;5017598;28;20047;-54
2021/03/18 00:16:50;;;;;;;8.43;3.78;;;1.10;89.90;;;;;;5021818;28;20116;-52
2021/03/18 00:19:16;;;;;;;12.93;3.38;;;1.00;89.80;;;;;;5029878;28;20037;-52
2021/03/18 00:21:42;;;;;;;13.25;3.40;;;1.00;89.80;;;;;;5021804;28;20094;-51
2021/03/18 00:24:09;;;;;;;10.93;3.67;;;1.00;89.70;;;;;;5029442;28;20053;-54
2021/03/18 00:26:35;;;;;;;11.45;3.50;;;1.00;90.00;;;;;;5028358;28;20041;-55
2021/03/18 00:29:02;;;;;;;10.32;3.60;;;1.10;90.10;;;;;;5011887;28;20348;-52
2021/03/18 00:31:32;;;;;;;15.82;4.20;;;1.10;90.00;;;;;;5028890;28;20049;-51
2021/03/18 00:33:58;;;;;;;13.50;4.20;;;1.10;90.00;;;;;;5023913;28;20034;-53
2021/03/18 00:36:25;;;;;;;9.52;4.20;;;1.10;90.30;;;;;;5022949;28;20100;-53
2021/03/18 00:38:51;;;;;;;12.90;3.78;;;1.10;90.10;;;;;;5027866;28;20410;-54
2021/03/18 00:41:18;;;;;;;10.60;3.67;;;1.10;90.00;;;;;;5027961;28;20038;-54
2021/03/18 00:43:44;;;;;;;13.25;3.88;;;1.10;90.00;;;;;;5015399;28;20038;-54
2021/03/18 00:46:10;;;;;;;15.88;4.15;;;1.10;90.00;;;;;;5015547;28;20406;-55
2021/03/18 00:48:37;;;;;;;13.15;4.65;;;1.10;90.10;;;;;;5028153;28;20041;-52
2021/03/18 00:51:06;;;;;;;13.55;3.88;;;1.00;90.10;;;;;;5019540;28;20050;-52
2021/03/18 00:53:38;;;;;;;10.73;3.95;;;1.00;90.10;;;;;;5014655;28;20046;-51
2021/03/18 00:56:08;;;;;;;10.13;4.35;;;1.00;90.10;;;;;;5025636;28;20079;-53
2021/03/18 00:58:35;;;;;;;17.17;4.20;;;1.00;90.30;;;;;;5009918;28;20042;-51
2021/03/18 01:01:03;;;;;;;13.75;4.72;;;1.00;90.30;;;;;;5025170;28;20133;-54
2021/03/18 01:03:32;;;;;;;10.05;3.80;;;1.00;90.00;;;;;;5025526;28;20497;-52
2021/03/18 01:06:37;;;;;;;11.27;4.18;;;1.00;90.10;;;;;;5020342;28;20041;-55
2021/03/18 01:09:05;;;;;;;9.93;3.50;;;0.90;90.10;;;;;;4957439;28;20050;-53
2021/03/18 01:11:35;;;;;;;14.80;4.03;;;0.90;90.10;;;;;;4949754;29;20456;-54
2021/03/18 01:14:09;;;;;;;13.13;4.93;;;0.80;90.20;;;;;;4995017;28;20486;-51
2021/03/18 01:16:47;;;;;;;11.35;3.83;;;0.80;90.20;;;;;;5012605;28;20108;-52
2021/03/18 01:19:13;;;;;;;10.48;3.70;;;0.80;90.20;;;;;;5024518;28;20095;-54
2021/03/18 01:21:42;;;;;;;8.75;3.50;;;0.80;90.10;;;;;;5021586;28;20041;-54
2021/03/18 01:24:09;;;;;;;10.38;3.40;;;0.70;90.20;;;;;;5026742;28;20042;-51
2021/03/18 01:26:35;;;;;;;8.57;3.63;;;0.70;90.30;;;;;;5017618;28;20049;-54
2021/03/18 01:29:01;;;;;;;13.43;3.63;;;0.70;90.30;;;;;;5017671;28;20405;-53
2021/03/18 01:31:27;;;;;;;17.15;4.30;;;0.70;90.40;;;;;;5025625;28;20509;-52
2021/03/18 01:33:53;;;;;;;9.95;4.47;;;0.70;90.30;;;;;;5025758;28;20038;-51
2021/03/18 01:36:19;;;;;;;12.45;3.90;;;0.70;90.20;;;;;;5011904;28;20041;-51
2021/03/18 01:38:46;;;;;;;12.02;4.38;;;0.70;90.30;;;;;;5027425;28;20500;-52
2021/03/18 01:41:13;;;;;;;16.85;4.85;;;0.70;90.40;;;;;;5024419;28;20117;-52
2021/03/18 01:43:39;;;;;;;9.15;4.00;;;0.70;90.40;;;;;;5029658;28;20130;-54
2021/03/18 01:46:05;;;;;;;12.38;4.50;;;0.70;90.40;;;;;;5004088;28;20042;-52
2021/03/18 01:48:31;;;;;;;12.95;4.45;;;0.80;90.60;;;;;;5011668;28;20129;-54
2021/03/18 01:50:58;;;;;;;16.23;4.57;;;0.80;90.60;;;;;;5005875;28;20120;-55
2021/03/18 01:53:25;;;;;;;19.55;4.93;;;0.80;90.60;;;;;;5019300;28;20446;-50
2021/03/18 01:55:54;;;;;;;12.70;4.50;;;0.90;90.60;;;;;;5013579;28;20037;-55
2021/03/18 01:58:21;;;;;;;17.25;4.68;;;0.90;90.60;;;;;;5021981;28;20046;-53
2021/03/18 02:01:09;;;;;;;15.50;4.13;;;0.90;90.70;;;;;;5020797;28;20422;-51
2021/03/18 02:03:36;;;;;;;16.90;4.53;;;0.90;90.60;;;;;;5015367;28;20050;-52
2021/03/18 02:06:02;;;;;;;14.00;5.05;;;0.90;90.60;;;;;;5026951;28;20414;-53
2021/03/18 02:08:28;;;;;;;12.55;4.75;;;0.90;90.60;;;;;;5030063;28;20504;-53
2021/03/18 02:10:54;;;;;;;12.43;5.03;;;0.90;90.70;;;;;;5021389;28;20038;-52
2021/03/18 02:13:20;;;;;;;14.27;4.70;;;0.90;90.80;;;;;;5023282;28;20042;-54
2021/03/18 02:15:47;;;;;;;17.65;5.32;;;0.90;90.80;;;;;;5028529;28;20037;-51
2021/03/18 02:18:39;;;;;;;16.63;4.72;;;0.90;90.80;;;;;;5018027;28;20115;-50
2021/03/18 02:21:42;;;;;;;13.55;5.18;;;1.00;91.00;;;;;;5022797;28;20045;-53
2021/03/18 02:24:16;;;;;;;12.25;4.72;;;1.00;90.70;;;;;;5010205;28;20044;-53
2021/03/18 02:27:19;;;;;;;17.23;5.10;;;1.00;90.80;;;;;;5024738;28;20069;-53
2021/03/18 02:30:16;;;;;;;12.85;4.97;;;1.00;90.80;;;;;;5019961;28;20517;-52
2021/03/18 02:33:03;;;;;;;14.63;5.28;;;1.10;90.80;;;;;;5023529;28;20061;-51
2021/03/18 02:35:33;;;;;;;14.30;5.30;;;1.10;90.70;;;;;;5016622;28;20584;-53
2021/03/18 02:38:07;;;;;;;13.35;4.93;;;1.20;90.70;;;;;;5027906;28;20053;-53
2021/03/18 02:40:44;;;;;;;17.50;5.03;;;1.20;90.60;;;;;;5027142;28;20045;-53
2021/03/18 02:43:13;;;;;;;12.18;5.10;;;1.20;90.60;;;;;;5008084;28;20034;-50
2021/03/18 02:45:43;;;;;;;15.75;5.35;;;1.20;90.70;;;;;;5018914;28;20107;-52
2021/03/18 02:48:17;;;;;;;14.70;5.70;;;1.20;90.80;;;;;;5028309;28;20068;-53
2021/03/18 02:50:45;;;;;;;16.90;5.72;;;1.30;90.80;;;;;;5029575;28;20064;-52
2021/03/18 02:53:15;;;;;;;18.27;5.93;;;1.20;90.80;;;;;;5027079;28;20041;-53
2021/03/18 02:55:43;;;;;;;17.50;6.38;;;1.30;90.80;;;;;;5026358;28;20049;-50
2021/03/18 02:58:12;;;;;;;14.15;5.93;;;1.30;90.80;;;;;;5018128;28;20128;-53
2021/03/18 03:00:38;;;;;;;16.70;6.07;;;1.30;90.80;;;;;;5031715;28;20091;-51
2021/03/18 03:03:06;;;;;;;13.95;5.40;;;1.30;90.80;;;;;;5025919;28;20099;-53
2021/03/18 03:05:33;;;;;;;17.58;6.20;;;1.30;90.90;;;;;;5031887;28;20140;-53
2021/03/18 03:08:01;;;;;;;15.65;5.65;;;1.30;91.00;;;;;;5031951;28;20076;-54
2021/03/18 03:10:28;;;;;;;17.52;6.07;;;1.30;91.10;;;;;;5022878;28;20049;-53
2021/03/18 03:12:56;;;;;;;15.27;5.65;;;1.30;91.10;;;;;;5011892;28;20074;-51
2021/03/18 03:15:24;;;;;;;14.45;5.80;;;1.30;91.00;;;;;;5025816;28;20457;-54
2021/03/18 03:17:50;;;;;;;22.17;6.05;;;1.30;91.10;;;;;;5031680;28;20069;-53
2021/03/18 03:20:18;;;;;;;17.42;6.22;;;1.20;90.90;;;;;;5032065;28;20041;-52
2021/03/18 03:22:45;;;;;;;16.77;6.60;;;1.30;91.10;;;;;;5025054;28;20037;-54
2021/03/18 03:25:15;;;;;;;14.25;5.80;;;1.30;91.00;;;;;;5029185;28;20046;-50
2021/03/18 03:27:46;;;;;;;16.60;6.35;;;1.30;91.00;;;;;;5012721;28;20044;-53
2021/03/18 03:30:14;;;;;;;18.90;6.28;;;1.30;91.00;;;;;;5028774;28;20494;-52
2021/03/18 03:32:42;;;;;;;20.10;6.40;;;1.20;91.00;;;;;;5025274;28;20033;-55
2021/03/18 03:35:08;;;;;;;16.40;6.22;;;1.20;91.00;;;;;;5002551;28;20037;-55
2021/03/18 03:37:34;;;;;;;14.95;6.22;;;1.20;91.10;;;;;;5026406;28;20466;-55
2021/03/18 03:40:00;;;;;;;17.08;6.13;;;1.10;91.00;;;;;;5013593;28;20500;-54
2021/03/18 03:42:26;;;;;;;14.45;5.75;;;1.10;91.10;;;;;;5012115;28;20391;-54
2021/03/18 03:44:52;;;;;;;19.42;6.32;;;1.10;91.10;;;;;;5030582;28;20068;-55
2021/03/18 03:47:17;;;;;;;20.80;6.68;;;1.00;91.20;;;;;;5040910;28;20058;-53
2021/03/18 03:49:44;;;;;;;17.90;6.45;;;1.00;91.10;;;;;;5032767;28;20045;-55
2021/03/18 03:52:26;;;;;;;14.30;5.90;;;1.00;91.30;;;;;;5032161;28;20038;-54
2021/03/18 03:55:08;;;;;;;20.08;6.18;;;1.10;91.30;;;;;;5030683;28;20464;-54
2021/03/18 03:57:54;;;;;;;13.02;6.28;;;1.00;91.20;;;;;;5042700;28;20095;-54
2021/03/18 04:00:21;;;;;;;12.73;5.28;;;1.00;91.20;;;;;;5026641;28;20072;-55
2021/03/18 04:02:50;;;;;;;18.63;6.38;;;1.00;91.00;;;;;;5008442;28;20041;-54
2021/03/18 04:05:16;;;;;;;15.98;6.60;;;0.90;91.00;;;;;;5013680;28;20044;-55
2021/03/18 04:07:44;;;;;;;17.98;6.20;;;1.00;91.10;;;;;;5030788;28;20482;-51
2021/03/18 04:10:12;;;;;;;17.95;6.72;;;1.00;91.10;;;;;;5029767;28;20476;-54
2021/03/18 04:12:43;;;;;;;19.65;6.20;;;1.00;91.20;;;;;;5030396;28;20076;-52
2021/03/18 04:15:13;;;;;;;15.93;6.25;;;1.00;91.20;;;;;;5024699;28;20405;-54
2021/03/18 04:17:44;;;;;;;11.00;5.03;;;1.10;91.10;;;;;;5030954;28;20041;-52
2021/03/18 04:20:13;;;;;;;17.80;5.33;;;1.10;91.20;;;;;;5028970;28;20037;-53
2021/03/18 04:22:41;;;;;;;14.77;5.32;;;1.00;91.10;;;;;;5034426;28;20050;-53
2021/03/18 04:25:09;;;;;;;17.70;5.43;;;1.00;90.80;;;;;;5027313;28;20034;-52
2021/03/18 04:27:36;;;;;;;14.68;5.85;;;0.90;90.90;;;;;;5011527;28;20045;-52
2021/03/18 04:30:05;;;;;;;18.63;5.78;;;1.00;91.00;;;;;;5029809;28;20038;-54
2021/03/18 04:32:31;;;;;;;14.13;6.68;;;1.00;91.00;;;;;;5023203;28;20038;-51
2021/03/18 04:34:58;;;;;;;16.85;6.45;;;0.90;91.10;;;;;;4998162;28;20498;-54
2021/03/18 04:37:25;;;;;;;18.52;6.53;;;0.90;91.10;;;;;;5028168;28;20069;-54
2021/03/18 04:39:52;;;;;;;17.52;6.00;;;1.00;91.50;;;;;;5022140;28;20099;-51
2021/03/18 04:42:19;;;;;;;14.18;5.25;;;1.00;91.30;;;;;;5028433;28;20048;-53
2021/03/18 04:44:46;;;;;;;12.10;5.30;;;1.00;91.40;;;;;;5033352;28;20043;-52
2021/03/18 04:47:17;;;;;;;13.25;5.47;;;1.00;91.30;;;;;;5030902;28;20041;-53
2021/03/18 04:49:46;;;;;;;15.82;6.38;;;1.00;91.20;;;;;;5019145;28;20034;-54
2021/03/18 04:52:16;;;;;;;24.30;6.68;;;1.00;91.20;;;;;;5022479;28;20041;-51
2021/03/18 04:54:42;;;;;;;21.13;7.28;;;1.00;91.20;;;;;;5026700;28;20038;-53
2021/03/18 04:57:10;;;;;;;20.75;7.85;;;1.00;91.30;;;;;;5020814;28;20038;-53
2021/03/18 04:59:37;;;;;;;23.23;6.93;;;1.00;91.40;;;;;;5025178;28;20091;-54
2021/03/18 05:02:05;;;;;;;22.60;7.82;;;1.10;91.60;;;;;;5030380;28;20041;-53
2021/03/18 05:04:33;;;;;;;19.90;7.25;;;1.10;91.40;;;;;;5027239;28;20140;-53
2021/03/18 05:07:01;;;;;;;21.23;8.18;;;1.10;91.50;;;;;;5029507;28;20400;-52
2021/03/18 05:09:28;;;;;;;17.48;7.10;;;1.20;91.60;;;;;;5012674;28;20042;-53
2021/03/18 05:11:55;;;;;;;18.92;7.45;;;1.20;91.60;;;;;;5020021;28;20033;-53
2021/03/18 05:14:22;;;;;;;23.50;7.55;;;1.20;91.70;;;;;;5022804;28;20046;-53
2021/03/18 05:16:52;;;;;;;18.67;7.20;;;1.20;91.60;;;;;;5028434;28;20129;-53
2021/03/18 05:19:18;;;;;;;20.27;7.28;;;1.30;91.70;;;;;;5030023;28;20038;-52
2021/03/18 05:21:46;;;;;;;18.38;7.53;;;1.30;91.80;;;;;;5030443;28;20045;-54
2021/03/18 05:24:13;;;;;;;18.33;7.07;;;1.30;91.70;;;;;;5028814;28;20490;-53
2021/03/18 05:26:41;;;;;;;19.13;7.68;;;1.30;91.90;;;;;;5025319;28;20042;-52
2021/03/18 05:29:07;;;;;;;21.67;8.20;;;1.40;91.90;;;;;;5031524;28;20072;-51
2021/03/18 05:31:34;;;;;;;21.67;7.88;;;1.40;92.10;;;;;;5017448;28;20125;-53
2021/03/18 05:34:00;;;;;;;20.02;7.43;;;1.40;91.90;;;;;;5025906;28;20037;-53
2021/03/18 05:36:26;;;;;;;15.20;7.72;;;1.50;91.80;;;;;;5021102;28;20050;-54
2021/03/18 05:38:52;;;;;;;18.40;7.40;;;1.50;91.80;;;;;;5027383;28;20037;-54
2021/03/18 05:41:19;;;;;;;19.33;8.00;;;1.50;92.00;;;;;;5022843;28;20443;-55
2021/03/18 05:43:46;;;;;;;19.75;7.88;;;1.50;92.00;;;;;;5026123;28;20041;-54
2021/03/18 05:46:13;;;;;;;19.13;8.48;;;1.60;91.90;;;;;;5011749;28;20065;-51
2021/03/18 05:48:40;;;;;;;14.57;7.43;;;1.60;91.90;;;;;;5035172;28;20489;-51
2021/03/18 05:51:07;;;;;;;19.70;8.00;;;1.60;92.00;;;;;;5023212;28;20045;-52
2021/03/18 05:53:33;;;;;;;17.60;8.02;;;1.60;92.20;;;;;;5016328;28;20042;-55
2021/03/18 05:56:00;;;;;;;16.73;7.55;;;1.70;92.10;;;;;;5028472;28;20053;-51
2021/03/18 05:58:26;;;;;;;16.70;7.93;;;1.70;92.10;;;;;;5014399;28;20042;-53
2021/03/18 06:00:53;;;;;;;17.70;8.05;;;1.80;92.10;;;;;;5018646;28;20065;-52
2021/03/18 06:03:19;;;;;;;20.25;7.97;;;1.80;92.10;;;;;;5019750;28;20140;-55
2021/03/18 06:05:46;;;;;;;16.33;8.07;;;1.80;92.10;;;;;;5031644;28;20136;-53
2021/03/18 06:08:12;;;;;;;22.45;8.50;;;1.90;92.10;;;;;;5029510;28;20046;-53
2021/03/18 06:10:38;;;;;;;20.42;9.15;;;1.90;92.10;;;;;;5014537;28;20041;-54
2021/03/18 06:13:05;;;;;;;20.60;8.50;;;1.90;92.10;;;;;;5028398;28;20115;-53
2021/03/18 06:15:31;;;;;;;16.83;8.32;;;1.90;92.20;;;;;;5032697;28;20038;-51
2021/03/18 06:17:57;;;;;;;19.52;8.68;;;2.00;92.30;;;;;;5033642;28;20313;-53
2021/03/18 06:20:25;;;;;;;21.60;8.93;;;2.00;92.30;;;;;;5033479;28;20053;-54
2021/03/18 06:22:52;;;;;;;23.40;9.07;;;2.10;92.40;;;;;;5034126;28;20092;-52
2021/03/18 06:25:23;;;;;;;18.25;9.07;;;2.10;92.30;;;;;;5029385;28;20498;-53
2021/03/18 06:27:49;;;;;;;21.45;8.57;;;2.20;92.30;;;;;;5033377;28;20398;-54
2021/03/18 06:30:16;;;;;;;24.98;9.68;;;2.20;92.40;;;;;;5031195;28;20045;-53
2021/03/18 06:32:41;;;;;;;20.38;8.43;;;2.30;92.30;;;;;;5031630;28;20506;-53
2021/03/18 06:35:10;;;;;;;22.17;8.80;;;2.40;92.40;;;;;;5023845;28;20050;-51
2021/03/18 06:37:46;;;;;;;19.02;8.90;;;2.40;92.30;;;;;;5019044;28;20497;-50
2021/03/18 06:40:14;;;;;;;16.30;8.45;;;2.40;92.30;;;;;;5033740;28;20049;-53
2021/03/18 06:42:50;;;;;;;24.25;8.85;;;2.50;92.30;;;;;;5030542;28;20044;-52
2021/03/18 06:45:16;;;;;;;23.02;9.02;;;2.50;92.30;;;;;;5034265;28;20063;-54
2021/03/18 06:47:48;;;;;;;19.88;8.55;;;2.50;92.40;;;;;;5026199;28;20478;-53
2021/03/18 06:50:25;;;;;;;21.80;8.30;;;2.60;92.40;;;;;;5026531;28;20029;-51
2021/03/18 06:52:51;;;;;;;16.83;8.55;;;2.60;92.30;;;;;;5025195;28;20065;-51
2021/03/18 06:55:28;;;;;;;20.00;8.25;;;2.60;92.20;;;;;;5020202;28;20152;-50
2021/03/18 06:58:14;;;;;;;16.42;8.68;;;2.60;92.30;;;;;;5013386;28;20053;-52
2021/03/18 07:00:41;;;;;;;19.08;9.05;;;2.70;92.60;;;;;;5026172;28;20474;-52
2021/03/18 07:03:11;;;;;;;21.02;8.95;;;2.70;92.40;;;;;;5021948;28;20068;-54
2021/03/18 07:05:39;;;;;;;23.23;9.00;;;2.70;92.30;;;;;;5022754;28;20073;-52
2021/03/18 07:08:06;;;;;;;24.58;9.15;;;2.80;92.40;;;;;;5029179;28;20038;-52
2021/03/18 07:10:34;;;;;;;19.02;8.60;;;2.80;92.40;;;;;;5020442;28;20080;-54
2021/03/18 07:13:18;;;;;;;22.77;8.38;;;2.90;92.30;;;;;;5000962;28;20070;-51
2021/03/18 07:15:45;;;;;;;17.25;8.35;;;2.90;92.20;;;;;;5000918;28;20037;-54
2021/03/18 07:18:12;;;;;;;20.42;8.27;;;2.90;92.30;;;;;;5004496;28;20037;-54
2021/03/18 07:20:39;;;;;;;18.98;8.90;;;2.90;92.30;;;;;;5018662;28;20049;-52
2021/03/18 07:23:16;;;;;;;24.67;9.43;;;3.00;92.20;;;;;;5016893;28;20510;-52
2021/03/18 07:25:48;;;;;;;20.10;9.18;;;3.00;92.20;;;;;;5010478;28;20045;-51
2021/03/18 07:28:22;;;;;;;20.30;8.20;;;3.10;92.40;;;;;;5021179;28;20475;-53
2021/03/18 07:30:48;;;;;;;19.05;8.65;;;3.60;92.70;;;;;;5017458;28;20042;-51
2021/03/18 07:33:14;;;;;;;20.08;8.45;;;3.20;92.30;;;;;;5014884;28;20048;-52
2021/03/18 07:35:39;;;;;;;19.15;8.10;;;3.20;92.40;;;;;;5015504;28;20116;-54
2021/03/18 07:38:05;;;;;;;17.42;8.15;;;3.20;92.40;;;;;;5014550;28;20050;-54
2021/03/18 07:40:31;;;;;;;16.88;8.48;;;3.30;92.30;;;;;;5016417;28;20046;-50
2021/03/18 07:42:59;;;;;;;18.65;8.73;;;3.40;92.50;;;;;;5018972;28;20517;-52
2021/03/18 07:45:26;;;;;;;19.67;8.43;;;3.40;92.60;;;;;;5016984;28;20449;-54
2021/03/18 07:47:52;;;;;;;22.35;8.60;;;3.40;92.30;;;;;;5026404;28;20045;-52
2021/03/18 07:50:25;;;;;;;21.33;8.57;;;3.50;92.40;;;;;;5025968;28;20517;-54
2021/03/18 07:52:52;;;;;;;18.75;8.40;;;3.50;92.60;;;;;;5023158;28;20065;-54
2021/03/18 07:55:20;;;;;;;26.98;9.07;;;3.60;92.80;;;;;;5018979;28;20117;-53
2021/03/18 07:57:50;;;;;;;19.40;8.98;;;3.70;92.50;;;;;;5020181;28;20542;-51
2021/03/18 08:00:22;;;;;;;20.23;8.05;;;3.80;92.40;;;;;;5010034;28;20034;-51
2021/03/18 08:02:47;;;;;;;24.38;8.70;;;3.80;92.40;;;;;;5017872;28;20561;-51
2021/03/18 08:05:36;;;;;;;14.98;7.90;;;3.90;92.40;;;;;;5024783;28;20042;-53
2021/03/18 08:08:02;;;;;;;19.48;8.32;;;4.00;92.40;;;;;;5015585;28;20051;-55
2021/03/18 08:10:27;;;;;;;20.42;7.20;;;4.00;92.50;;;;;;5016380;28;20067;-53
2021/03/18 08:12:56;;;;;;;21.27;7.95;;;3.70;92.30;;;;;;5018440;28;20466;-51
2021/03/18 08:15:30;;;;;;;21.52;8.45;;;4.10;92.40;;;;;;5014133;28;20033;-54
2021/03/18 08:18:16;;;;;;;20.20;7.80;;;4.20;92.30;;;;;;5014690;28;20053;-53
2021/03/18 08:20:41;;;;;;;19.85;7.50;;;4.30;92.60;;;;;;5014328;28;20099;-54
2021/03/18 08:23:22;;;;;;;20.83;8.18;;;4.30;92.40;;;;;;5014907;28;20045;-51
2021/03/18 08:26:05;;;;;;;19.35;7.97;;;4.30;92.50;;;;;;5016999;28;20053;-55
2021/03/18 08:28:47;;;;;;;22.70;8.13;;;4.40;92.50;;;;;;5015828;28;20132;-54
2021/03/18 08:31:24;;;;;;;17.77;7.57;;;4.60;92.50;;;;;;5012557;28;20045;-52
2021/03/18 08:33:52;;;;;;;19.55;7.57;;;4.60;92.30;;;;;;5013683;28;20395;-53
2021/03/18 08:36:25;;;;;;;18.42;6.20;;;4.70;92.30;;;;;;5011617;28;20038;-53
2021/03/18 08:38:57;;;;;;;25.17;6.88;;;4.70;92.50;;;;;;5013477;28;20045;-52
2021/03/18 08:41:45;;;;;;;21.77;7.60;;;4.80;92.40;;;;;;5016101;28;21431;-55
2021/03/18 08:44:25;;;;;;;21.65;6.60;;;4.90;92.20;;;;;;5013163;28;20041;-55
2021/03/18 08:47:00;;;;;;;22.20;7.05;;;4.90;92.30;;;;;;5014144;28;20051;-53
2021/03/18 08:49:29;;;;;;;21.20;6.53;;;5.00;92.40;;;;;;5015437;28;20042;-51
2021/03/18 08:51:59;;;;;;;26.15;7.43;;;5.00;92.40;;;;;;5012622;28;20206;-55
2021/03/18 08:54:54;;;;;;;25.50;6.45;;;5.00;92.20;;;;;;5015062;28;20042;-54
2021/03/18 08:57:20;;;;;;;21.17;6.22;;;5.10;92.20;;;;;;5006911;28;20069;-55
2021/03/18 08:59:51;;;;;;;28.15;7.47;;;5.10;92.20;;;;;;5014285;28;20065;-52
2021/03/18 09:02:20;;;;;;;26.58;6.80;;;5.20;92.40;;;;;;5019433;28;20402;-50
2021/03/18 09:04:48;;;;;;;18.58;6.60;;;5.20;92.30;;;;;;5028669;28;20037;-53
2021/03/18 09:07:20;;;;;;;24.88;7.20;;;5.30;92.30;;;;;;5024696;28;20069;-53
2021/03/18 09:09:45;;;;;;;22.17;6.80;;;5.40;92.10;;;;;;5018862;28;20037;-51
2021/03/18 09:12:11;;;;;;;19.80;6.53;;;5.40;92.00;;;;;;5013898;28;20480;-54
2021/03/18 09:14:40;;;;;;;18.38;6.13;;;5.50;92.00;;;;;;5017336;28;20430;-55
2021/03/18 09:17:08;;;;;;;26.80;6.50;;;5.50;92.30;;;;;;5020229;28;20033;-52
2021/03/18 09:19:35;;;;;;;26.48;5.90;;;5.50;91.90;;;;;;5022957;28;20838;-53
2021/03/18 09:22:00;;;;;;;18.42;5.78;;;5.50;92.00;;;;;;5020383;28;20030;-52
2021/03/18 09:24:37;;;;;;;21.25;6.50;;;5.60;91.90;;;;;;5024681;28;20395;-53
2021/03/18 09:27:08;;;;;;;26.50;5.50;;;5.60;91.80;;;;;;5017279;28;20057;-51
2021/03/18 09:29:34;;;;;;;21.27;6.03;;;5.70;91.80;;;;;;5019393;28;20100;-52
2021/03/18 09:32:08;;;;;;;20.50;5.40;;;5.70;91.80;;;;;;5021439;28;20042;-52
2021/03/18 09:34:38;;;;;;;23.42;6.30;;;5.70;91.80;;;;;;5020843;28;20038;-50
2021/03/18 09:37:08;;;;;;;21.05;6.57;;;5.70;91.70;;;;;;5020400;28;20065;-54
2021/03/18 09:39:35;;;;;;;20.02;5.43;;;5.80;91.80;;;;;;5027012;28;20049;-51
2021/03/18 09:42:05;;;;;;;18.70;5.85;;;5.80;91.70;;;;;;5022581;28;20050;-53
2021/03/18 09:44:31;;;;;;;20.48;5.78;;;5.80;91.70;;;;;;5042439;28;20045;-49
2021/03/18 09:46:59;;;;;;;23.67;5.88;;;5.90;91.70;;;;;;5024731;28;20057;-51
2021/03/18 09:49:39;;;;;;;28.00;5.93;;;5.90;91.60;;;;;;5013958;28;20390;-50
2021/03/18 09:52:14;;;;;;;16.88;5.18;;;6.00;91.80;;;;;;5030938;28;20048;-53
2021/03/18 09:54:40;;;;;;;24.85;5.97;;;6.10;91.60;;;;;;5020435;28;20038;-51
2021/03/18 09:57:09;;;;;;;19.42;5.28;;;6.10;91.40;;;;;;5014610;28;20410;-54
2021/03/18 09:59:36;;;;;;;19.75;4.85;;;6.30;91.40;;;;;;5012421;28;20516;-53
2021/03/18 10:02:03;;;;;;;24.35;5.40;;;6.30;91.20;;;;;;5032316;28;20037;-53
2021/03/18 10:04:37;;;;;;;25.65;5.95;;;6.30;91.10;;;;;;5024145;28;20057;-51
2021/03/18 10:07:03;;;;;;;21.95;4.68;;;6.30;91.00;;;;;;5031211;28;20049;-55
2021/03/18 10:09:39;;;;;;;22.25;4.93;;;6.30;91.00;;;;;;5031407;28;20476;-55
2021/03/18 10:12:09;;;;;;;21.40;4.55;;;6.40;90.70;;;;;;5013072;28;20045;-54
2021/03/18 10:14:44;;;;;;;21.83;5.55;;;6.40;90.50;;;;;;5027653;28;20038;-51
2021/03/18 10:17:14;;;;;;;28.60;4.85;;;6.40;90.40;;;;;;5014300;28;20044;-50
2021/03/18 10:19:49;;;;;;;22.90;4.28;;;6.50;90.30;;;;;;4999597;28;20058;-52
2021/03/18 10:22:15;;;;;;;27.77;5.07;;;6.50;90.20;;;;;;5030837;28;20070;-54
2021/03/18 10:24:41;;;;;;;20.83;5.07;;;6.70;90.00;;;;;;5029873;28;20046;-53
2021/03/18 10:27:15;;;;;;;20.60;5.22;;;6.80;89.80;;;;;;5020141;28;20033;-52
2021/03/18 10:29:42;;;;;;;24.55;4.78;;;7.00;89.60;;;;;;5032535;28;20056;-53
2021/03/18 10:32:10;;;;;;;27.90;4.38;;;7.10;89.30;;;;;;5030829;28;20116;-50
2021/03/18 10:34:35;;;;;;;24.77;5.07;;;7.10;88.40;;;;;;5036389;28;20053;-52
2021/03/18 10:37:02;;;;;;;25.23;5.10;;;7.20;88.20;;;;;;5028938;28;20103;-53
2021/03/18 10:39:27;;;;;;;24.20;4.43;;;7.10;87.90;;;;;;5034156;28;20195;-52
2021/03/18 10:41:59;;;;;;;25.42;4.70;;;7.20;88.10;;;;;;5030188;28;20478;-53
2021/03/18 10:44:35;;;;;;;28.92;5.50;;;7.20;87.90;;;;;;5041786;28;20041;-54
2021/03/18 10:47:18;;;;;;;19.65;4.18;;;7.20;86.50;;;;;;5023141;28;20038;-55
2021/03/18 10:50:02;;;;;;;25.65;4.88;;;7.40;87.00;;;;;;5023988;28;20125;-52
2021/03/18 10:52:28;;;;;;;27.85;5.20;;;7.50;86.90;;;;;;5027070;28;20053;-55
2021/03/18 10:54:57;;;;;;;20.65;4.72;;;7.60;86.90;;;;;;5024139;28;20041;-51
2021/03/18 10:57:24;;;;;;;28.13;5.22;;;7.60;86.30;;;;;;5028483;28;20049;-54
2021/03/18 10:59:55;;;;;;;21.60;4.43;;;7.60;85.10;;;;;;5033280;28;20056;-54
2021/03/18 11:02:23;;;;;;;29.30;5.60;;;7.60;85.30;;;;;;5020125;28;20041;-54
2021/03/18 11:04:57;;;;;;;21.65;5.30;;;7.60;85.80;;;;;;5031213;28;20060;-54
2021/03/18 11:07:25;;;;;;;26.05;5.72;;;7.60;85.80;;;;;;5033644;28;20068;-54
2021/03/18 11:10:12;;;;;;;24.73;5.50;;;7.70;86.20;;;;;;5022995;28;20046;-52
2021/03/18 11:12:41;;;;;;;25.75;4.95;;;7.60;85.20;;;;;;5017947;28;20033;-53
2021/03/18 11:15:10;;;;;;;27.23;5.43;;;7.60;85.90;;;;;;5017645;28;20044;-52
2021/03/18 11:17:36;;;;;;;21.25;4.05;;;7.60;85.90;;;;;;5004866;28;20050;-55
2021/03/18 11:20:15;;;;;;;19.75;3.85;;;7.60;84.80;;;;;;5019381;28;20085;-55
2021/03/18 11:22:43;;;;;;;25.35;4.85;;;7.90;84.60;;;;;;5023187;28;20037;-54
2021/03/18 11:25:09;;;;;;;26.67;4.90;;;7.60;84.60;;;;;;5020275;28;20042;-53
2021/03/18 11:27:38;;;;;;;22.45;4.28;;;7.60;84.40;;;;;;5021053;28;20041;-54
2021/03/18 11:30:05;;;;;;;21.80;4.35;;;7.60;82.60;;;;;;5020507;28;20065;-51
2021/03/18 11:32:31;;;;;;;20.95;3.88;;;7.70;82.30;;;;;;5017057;28;20069;-54
2021/03/18 11:34:59;;;;;;;23.40;4.30;;;7.80;82.50;;;;;;5018950;28;20470;-55
2021/03/18 11:37:25;;;;;;;19.40;4.30;;;7.80;81.50;;;;;;5016070;28;20033;-50
2021/03/18 11:39:54;;;;;;;18.92;3.85;;;7.70;82.90;;;;;;5015257;28;20061;-49
2021/03/18 11:42:19;;;;;;;13.00;3.03;;;7.80;81.80;;;;;;5019814;28;20054;-54
2021/03/18 11:44:45;;;;;;;11.68;2.88;;;7.80;82.10;;;;;;5016372;28;20456;-54
2021/03/18 11:47:13;;;;;;;19.20;4.20;;;7.80;81.40;;;;;;5024477;28;20042;-53
2021/03/18 11:49:42;;;;;;;17.00;2.90;;;7.80;82.00;;;;;;5016060;28;20049;-52
2021/03/18 11:52:09;;;;;;;16.88;3.90;;;7.80;81.80;;;;;;5001872;28;20538;-51
2021/03/18 11:54:36;;;;;;;19.23;3.55;;;7.90;81.50;;;;;;5015639;28;20041;-54
2021/03/18 11:57:02;;;;;;;19.27;2.83;;;7.90;80.80;;;;;;4997373;28;20061;-53
2021/03/18 11:59:28;;;;;;;17.00;3.60;;;7.80;80.30;;;;;;5018123;28;21308;-52
2021/03/18 12:01:53;;;;;;;17.33;3.42;;;7.80;80.50;;;;;;5023745;28;20124;-52
2021/03/18 12:04:19;;;;;;;17.90;3.40;;;7.80;81.80;;;;;;5021304;28;20498;-53
2021/03/18 12:06:45;;;;;;;21.17;3.58;;;7.80;81.50;;;;;;5014394;28;20038;-52
2021/03/18 12:09:11;;;;;;;18.25;3.78;;;7.80;82.00;;;;;;5014963;28;20034;-53
2021/03/18 12:11:38;;;;;;;23.48;3.72;;;7.90;82.70;;;;;;5023797;28;20046;-53
2021/03/18 12:14:03;;;;;;;14.45;3.67;;;8.00;83.10;;;;;;5021010;28;20478;-52
2021/03/18 12:16:29;;;;;;;21.15;3.63;;;8.00;82.60;;;;;;5020762;28;20142;-54
2021/03/18 12:18:55;;;;;;;13.20;3.30;;;8.10;82.50;;;;;;5019426;28;20037;-52
2021/03/18 12:21:21;;;;;;;16.30;2.95;;;8.10;81.60;;;;;;5021197;28;20425;-52
2021/03/18 12:23:46;;;;;;;15.38;2.95;;;8.20;81.20;;;;;;5014795;28;20105;-54
2021/03/18 12:26:13;;;;;;;13.55;2.70;;;8.20;79.90;;;;;;5014993;28;20056;-51
2021/03/18 12:28:38;;;;;;;17.20;3.53;;;8.20;79.40;;;;;;5019266;28;20054;-54
2021/03/18 12:31:04;;;;;;;12.90;2.78;;;8.30;78.40;;;;;;5019976;28;20387;-52
2021/03/18 12:33:30;;;;;;;16.33;2.78;;;8.40;74.90;;;;;;5015901;28;20037;-52
2021/03/18 12:35:56;;;;;;;17.25;2.88;;;8.30;74.30;;;;;;5019239;28;20033;-54
2021/03/18 12:38:22;;;;;;;12.27;2.53;;;8.20;75.20;;;;;;5013813;28;20521;-49
2021/03/18 12:40:50;;;;;;;12.63;3.20;;;8.20;75.50;;;;;;5019915;28;20461;-50
2021/03/18 12:43:15;;;;;;;9.48;2.08;;;8.20;75.40;;;;;;5026820;28;20044;-50
2021/03/18 12:45:42;;;;;;;17.35;3.85;;;8.20;76.80;;;;;;5028631;28;20050;-53
2021/03/18 12:48:08;;;;;;;16.58;3.63;;;8.20;76.20;;;;;;5022275;28;20034;-52
2021/03/18 12:50:35;;;;;;;14.30;2.50;;;8.20;76.10;;;;;;5008807;28;20045;-54
2021/03/18 12:53:01;;;;;;;16.58;2.83;;;8.40;73.90;;;;;;5017124;28;20042;-53
2021/03/18 12:55:27;;;;;;;12.02;3.22;;;8.60;73.30;;;;;;5019047;28;20044;-53
2021/03/18 12:57:54;;;;;;;18.05;2.70;;;8.60;73.30;;;;;;5021419;28;20071;-53
2021/03/18 13:00:22;;;;;;;8.98;2.22;;;8.60;72.60;;;;;;5022303;28;20045;-56